createdAt,value
2023-04-16T00:00:53.105Z,99.0258
2023-04-16T00:01:53.850Z,98.1528
2023-04-16T00:02:54.657Z,98.6483
2023-04-16T00:03:55.935Z,98.9241
2023-04-16T00:04:56.746Z,98.9735
2023-04-16T00:05:57.358Z,99.2144
2023-04-16T00:06:58.051Z,99.2919
2023-04-16T00:07:58.662Z,99.3546
2023-04-16T00:08:59.323Z,99.3995
2023-04-16T00:10:00.008Z,99.3372
2023-04-16T00:11:00.673Z,99.3793
2023-04-16T00:12:01.332Z,99.4032
2023-04-16T00:13:02.053Z,99.4903
2023-04-16T00:14:02.663Z,99.4965
2023-04-16T00:15:03.332Z,99.4882
2023-04-16T00:16:03.994Z,99.6854
2023-04-16T00:17:04.736Z,99.6114
2023-04-16T00:18:05.459Z,99.5213
2023-04-16T00:19:06.133Z,99.5558
2023-04-16T00:20:06.775Z,99.3271
2023-04-16T00:21:07.441Z,98.7847
2023-04-16T00:22:08.117Z,98.7286
2023-04-16T00:23:08.814Z,98.9284
2023-04-16T00:24:09.451Z,98.8535
2023-04-16T00:25:10.100Z,98.8764
2023-04-16T00:26:10.739Z,98.8518
2023-04-16T00:27:11.722Z,98.8704
2023-04-16T00:28:12.337Z,98.7944
2023-04-16T00:29:13.003Z,99.0391
2023-04-16T00:30:13.623Z,99.0789
2023-04-16T00:31:14.568Z,98.9937
2023-04-16T00:32:15.248Z,99.1542
2023-04-16T00:33:15.900Z,99.2006
2023-04-16T00:34:18.408Z,99.2446
2023-04-16T00:35:19.066Z,99.3316
2023-04-16T00:36:19.943Z,99.4954
2023-04-16T00:37:20.570Z,99.6208
2023-04-16T00:38:21.230Z,99.6873
2023-04-16T00:39:21.999Z,99.5767
2023-04-16T00:40:22.683Z,99.4551
2023-04-16T00:41:23.298Z,99.2893
2023-04-16T00:42:23.994Z,99.2742
2023-04-16T00:43:24.636Z,99.4846
2023-04-16T00:44:25.297Z,99.3833
2023-04-16T00:45:25.956Z,99.3236
2023-04-16T00:46:26.680Z,99.4813
2023-04-16T00:47:27.310Z,99.3483
2023-04-16T00:48:28.017Z,99.4336
2023-04-16T00:49:28.646Z,99.5216
2023-04-16T00:50:29.314Z,99.6494
2023-04-16T00:51:29.997Z,99.5894
2023-04-16T00:52:30.621Z,99.3872
2023-04-16T00:53:31.295Z,99.4322
2023-04-16T00:54:31.959Z,99.1228
2023-04-16T00:55:32.633Z,99.0839
2023-04-16T00:56:33.278Z,99.3081
2023-04-16T00:57:33.981Z,99.3392
2023-04-16T00:58:34.643Z,99.4542
2023-04-16T00:59:35.288Z,99.3314
2023-04-16T01:00:35.933Z,99.1459
2023-04-16T01:01:36.616Z,99.3794
2023-04-16T01:02:37.336Z,99.5779
2023-04-16T01:03:38.179Z,99.4257
2023-04-16T01:04:38.877Z,99.7020
2023-04-16T01:05:39.544Z,99.5311
2023-04-16T01:06:40.260Z,99.5533
2023-04-16T01:07:40.904Z,99.6108
2023-04-16T01:08:41.534Z,99.6832
2023-04-16T01:09:42.208Z,99.6531
2023-04-16T01:10:42.872Z,99.7456
2023-04-16T01:11:43.493Z,99.8832
2023-04-16T01:12:44.130Z,99.6236
2023-04-16T01:13:44.778Z,99.7987
2023-04-16T01:14:45.878Z,99.8815
2023-04-16T01:15:46.530Z,99.6702
2023-04-16T01:16:47.184Z,99.6613
2023-04-16T01:17:47.856Z,99.6656
2023-04-16T01:18:48.483Z,99.7173
2023-04-16T01:19:49.173Z,99.6901
2023-04-16T01:20:49.870Z,99.6114
2023-04-16T01:21:50.550Z,99.2717
2023-04-16T01:22:51.254Z,99.0161
2023-04-16T01:23:51.928Z,98.9552
2023-04-16T01:24:52.666Z,98.9200
2023-04-16T01:25:53.365Z,99.1936
2023-04-16T01:26:54.047Z,99.3232
2023-04-16T01:27:54.728Z,99.4333
2023-04-16T01:28:55.400Z,99.3416
2023-04-16T01:29:56.092Z,99.5354
2023-04-16T01:30:56.799Z,99.4172
2023-04-16T01:31:57.468Z,99.4470
2023-04-16T01:32:58.200Z,99.5349
2023-04-16T01:33:59.118Z,99.5703
2023-04-16T01:34:59.818Z,99.7480
2023-04-16T01:36:00.587Z,99.8513
2023-04-16T01:37:01.419Z,99.7413
2023-04-16T01:38:02.091Z,99.4220
2023-04-16T01:39:02.764Z,99.2550
2023-04-16T01:40:03.453Z,99.4367
2023-04-16T01:41:04.163Z,99.4939
2023-04-16T01:42:04.897Z,99.4075
2023-04-16T01:43:05.603Z,99.4537
2023-04-16T01:44:06.297Z,99.6721
2023-04-16T01:45:06.979Z,99.6972
2023-04-16T01:46:07.682Z,99.8273
2023-04-16T01:47:08.362Z,99.8647
2023-04-16T01:48:09.079Z,99.5953
2023-04-16T01:49:09.949Z,99.6560
2023-04-16T01:50:10.700Z,99.7728
2023-04-16T01:51:11.658Z,99.7317
2023-04-16T01:52:12.331Z,99.7152
2023-04-16T01:53:13.012Z,99.6936
2023-04-16T01:54:13.686Z,99.7385
2023-04-16T01:55:14.404Z,99.7313
2023-04-16T01:56:15.106Z,99.7051
2023-04-16T01:57:15.776Z,99.7639
2023-04-16T01:58:16.439Z,99.8836
2023-04-16T01:59:17.358Z,99.6954
2023-04-16T02:00:18.043Z,99.6228
2023-04-16T02:01:18.809Z,99.8062
2023-04-16T02:02:19.575Z,99.9497
2023-04-16T02:03:20.419Z,100.0000
2023-04-16T02:04:21.144Z,99.9163
2023-04-16T06:48:58.668Z,99.8961
2023-04-16T06:49:52.696Z,100.0000
2023-04-16T06:50:53.493Z,100.0000
2023-04-16T06:51:54.167Z,100.0000
2023-04-16T06:52:54.856Z,100.0000
2023-04-16T06:53:55.659Z,100.0000
2023-04-16T06:54:56.407Z,100.0000
2023-04-16T06:55:57.227Z,100.0000
2023-04-16T06:56:58.150Z,100.0000
2023-04-16T06:57:58.771Z,100.0000
2023-04-16T06:58:59.452Z,100.0000
2023-04-16T07:00:00.243Z,100.0000
2023-04-16T07:01:00.995Z,100.0000
2023-04-16T07:02:01.873Z,100.0000
2023-04-16T07:03:03.130Z,100.0000
2023-04-16T07:04:04.041Z,100.0000
2023-04-16T07:05:04.852Z,100.0000
2023-04-16T07:06:05.532Z,100.0000
2023-04-16T07:07:06.238Z,100.0000
2023-04-16T07:08:06.951Z,100.0000
2023-04-16T07:09:07.788Z,100.0000
2023-04-16T07:10:08.555Z,99.9077
2023-04-16T07:11:09.262Z,100.0000
2023-04-16T07:12:09.933Z,100.0000
2023-04-16T07:13:10.864Z,100.0000
2023-04-16T07:14:11.746Z,100.0000
2023-04-16T07:15:12.418Z,100.0000
2023-04-16T07:16:13.469Z,100.0000
2023-04-16T07:17:14.145Z,100.0000
2023-04-16T07:18:14.848Z,100.0000
2023-04-16T07:19:15.547Z,100.0000
2023-04-16T07:20:16.262Z,100.0000
2023-04-16T07:21:17.478Z,100.0000
2023-04-16T07:22:18.114Z,100.0000
2023-04-16T07:23:18.820Z,100.0000
2023-04-16T07:24:19.570Z,100.0000
2023-04-16T07:25:20.252Z,100.0000
2023-04-16T07:26:20.929Z,100.0000
2023-04-16T07:27:21.751Z,100.0000
2023-04-16T07:28:22.410Z,100.0000
2023-04-16T07:29:23.290Z,100.0000
2023-04-16T07:30:24.098Z,99.6314
2023-04-16T07:31:24.835Z,99.9957
2023-04-16T07:32:25.626Z,100.0000
2023-04-16T07:33:26.559Z,100.0000
2023-04-16T07:34:27.293Z,100.0000
2023-04-16T07:35:27.982Z,100.0000
2023-04-16T07:36:28.646Z,100.0000
2023-04-16T07:37:29.369Z,100.0000
2023-04-16T07:38:30.026Z,100.0000
2023-04-16T07:39:30.717Z,100.0000
2023-04-16T07:40:31.427Z,100.0000
2023-04-16T07:41:32.367Z,99.9968
2023-04-16T07:42:33.035Z,99.7796
2023-04-16T07:47:58.135Z,99.9485
2023-04-16T07:48:51.853Z,98.3283
2023-04-16T07:49:52.769Z,98.4485
2023-04-16T07:50:53.455Z,99.0996
2023-04-16T07:51:54.381Z,99.0082
2023-04-16T07:52:55.242Z,98.2716
2023-04-16T07:53:56.000Z,98.8908
2023-04-16T07:54:56.859Z,99.1931
2023-04-16T07:55:57.732Z,99.4274
2023-04-16T07:56:58.478Z,99.6858
2023-04-16T07:57:59.689Z,99.6931
2023-04-16T07:59:07.833Z,99.6819
2023-04-16T08:00:03.738Z,99.2021
2023-04-16T08:01:04.420Z,98.8281
2023-04-16T08:02:05.186Z,99.6755
2023-04-16T08:03:06.011Z,98.9978
2023-04-16T08:04:07.087Z,98.0061
2023-04-16T08:05:07.865Z,98.5583
2023-04-16T08:06:08.568Z,99.1785
2023-04-16T08:07:09.241Z,98.9835
2023-04-16T08:08:11.457Z,99.2279
2023-04-16T08:09:12.294Z,99.3209
2023-04-16T08:10:13.043Z,99.3411
2023-04-16T08:11:13.848Z,98.5139
2023-04-16T08:12:14.546Z,98.9514
2023-04-16T08:18:09.950Z,98.8013
2023-04-16T08:19:10.970Z,98.2459
2023-04-16T08:20:15.060Z,97.9004
2023-04-16T08:21:15.328Z,98.4435
2023-04-16T08:22:16.305Z,98.9263
2023-04-16T08:23:17.208Z,98.9198
2023-04-16T08:24:17.918Z,98.1201
2023-04-16T08:25:18.605Z,98.7726
2023-04-16T08:26:19.561Z,98.3462
2023-04-16T08:27:20.502Z,98.3401
2023-04-16T08:28:21.230Z,98.6918
2023-04-16T08:29:22.388Z,98.2005
2023-04-16T08:30:23.064Z,98.4452
2023-04-16T08:31:23.836Z,98.3570
2023-04-16T08:32:24.637Z,98.7848
2023-04-16T08:33:25.636Z,98.2889
2023-04-16T08:34:26.368Z,98.5824
2023-04-16T08:35:27.112Z,99.2706
2023-04-16T08:36:27.853Z,99.3312
2023-04-16T08:37:28.542Z,99.2607
2023-04-16T08:38:29.505Z,98.9547
2023-04-16T08:39:30.183Z,98.8628
2023-04-16T08:40:30.950Z,99.1258
2023-04-16T08:41:31.648Z,99.3287
2023-04-16T08:42:32.394Z,98.1912
2023-04-16T08:43:33.093Z,99.0354
2023-04-16T08:44:33.808Z,99.2031
2023-04-16T08:45:34.565Z,99.2090
2023-04-16T08:46:35.311Z,98.6409
2023-04-16T08:47:36.019Z,97.5642
2023-04-16T08:48:36.727Z,97.5480
2023-04-16T08:49:37.434Z,97.6190
2023-04-16T08:50:38.406Z,97.9265
2023-04-16T08:51:39.225Z,97.8437
2023-04-16T08:52:39.912Z,98.2529
2023-04-16T08:53:40.738Z,98.7188
2023-04-16T08:54:41.496Z,97.4373
2023-04-16T08:55:42.289Z,98.1032
2023-04-16T11:00:38.375Z,98.2003
2023-04-16T11:26:09.643Z,98.1140
2023-04-16T11:41:49.429Z,97.2061
2023-04-16T11:42:20.271Z,97.8256
2023-04-16T11:43:21.076Z,98.2889
2023-04-16T11:44:21.949Z,98.0731
2023-04-16T11:45:22.931Z,98.3531
2023-04-16T11:46:27.841Z,98.7253
2023-04-16T11:47:25.994Z,98.7691
2023-04-16T11:48:26.917Z,98.9353
2023-04-16T11:49:27.715Z,99.1207
2023-04-16T11:50:28.533Z,99.0581
2023-04-16T11:51:29.368Z,99.0603
2023-04-16T11:52:30.239Z,98.8828
2023-04-16T11:53:31.052Z,98.6329
2023-04-16T11:54:31.819Z,98.7254
2023-04-16T11:55:32.623Z,98.7892
2023-04-16T11:56:33.469Z,98.9636
2023-04-16T11:57:35.782Z,98.6317
2023-04-16T11:58:36.821Z,98.4937
2023-04-16T11:59:36.751Z,98.7463
2023-04-16T12:00:38.351Z,98.6833
2023-04-16T12:01:40.777Z,98.6135
2023-04-16T12:02:43.403Z,98.2118
2023-04-16T12:03:46.066Z,98.2414
2023-04-16T12:42:25.168Z,97.6913
2023-04-16T13:08:26.719Z,96.5164
2023-04-16T13:08:57.038Z,96.0250
2023-04-16T13:09:57.797Z,96.8044
2023-04-16T13:10:58.601Z,97.4908
2023-04-16T13:11:59.401Z,98.0264
2023-04-16T13:13:00.258Z,98.1535
2023-04-16T13:14:01.086Z,97.6453
2023-04-16T13:15:02.193Z,97.3027
2023-04-16T13:16:02.973Z,96.6110
2023-04-16T13:17:03.769Z,96.6506
2023-04-16T13:18:04.642Z,96.1961
2023-04-16T13:19:05.440Z,96.3332
2023-04-16T13:20:06.205Z,96.1269
2023-04-16T13:21:07.003Z,96.6364
2023-04-16T13:22:08.589Z,97.1302
2023-04-16T13:23:09.367Z,97.1661
2023-04-16T13:24:10.123Z,97.3160
2023-04-16T13:25:10.873Z,97.8273
2023-04-16T13:26:11.597Z,97.3263
2023-04-16T13:27:12.364Z,97.4214
2023-04-16T13:28:13.106Z,97.7087
2023-04-16T13:29:13.853Z,97.8207
2023-04-16T13:30:14.587Z,97.4593
2023-04-16T13:31:15.388Z,96.4765
2023-04-16T13:32:16.113Z,97.0074
2023-04-16T13:33:16.978Z,97.1487
2023-04-16T13:34:17.719Z,97.2655
2023-04-16T13:35:18.445Z,95.8797
2023-04-16T13:36:19.220Z,95.3581
2023-04-16T13:37:19.951Z,96.3327
2023-04-16T13:38:20.719Z,96.5002
2023-04-16T13:39:21.617Z,95.8063
2023-04-16T13:40:22.295Z,95.4600
2023-04-16T13:41:23.066Z,95.9125
2023-04-16T13:42:24.142Z,96.0009
2023-04-16T13:43:24.909Z,96.0119
2023-04-16T13:44:25.656Z,96.2513
2023-04-16T13:45:26.414Z,95.9970
2023-04-16T13:46:27.147Z,95.3655
2023-04-16T13:47:27.889Z,95.2615
2023-04-16T13:48:28.688Z,94.7012
2023-04-16T13:49:29.743Z,95.3220
2023-04-16T13:50:30.555Z,95.8984
2023-04-16T13:51:32.132Z,95.7030
2023-04-16T13:52:32.929Z,96.0950
2023-04-16T13:53:33.745Z,96.1063
2023-04-16T13:54:34.737Z,96.1920
2023-04-16T13:55:35.605Z,95.5460
2023-04-16T13:56:36.405Z,95.8864
2023-04-16T13:57:37.198Z,96.5689
2023-04-16T13:58:38.570Z,96.9316
2023-04-16T13:59:40.573Z,95.9675
2023-04-16T14:00:41.413Z,95.9757
2023-04-16T14:01:42.218Z,96.3095
2023-04-16T14:02:43.176Z,96.2159
2023-04-16T14:03:44.364Z,96.0923
2023-04-16T14:04:45.555Z,96.1467
2023-04-16T14:05:47.133Z,96.5756
2023-04-16T14:06:48.508Z,96.7179
2023-04-16T14:07:49.567Z,96.6852
2023-04-16T14:08:50.383Z,97.0804
2023-04-16T14:09:51.156Z,97.3126
2023-04-16T14:10:52.638Z,97.3044
2023-04-16T14:11:54.656Z,96.9771
2023-04-16T14:12:55.391Z,97.1109
2023-04-16T14:13:56.234Z,96.7302
2023-04-16T14:14:57.009Z,96.9944
2023-04-16T14:15:57.869Z,96.1200
2023-04-16T14:16:59.669Z,96.8265
2023-04-16T14:18:00.660Z,96.7711
2023-04-16T14:19:01.571Z,96.6206
2023-04-16T14:20:03.025Z,96.3717
2023-04-16T14:21:03.736Z,96.7574
2023-04-16T14:22:04.576Z,96.7362
2023-04-16T14:23:05.305Z,96.9472
2023-04-16T14:24:06.063Z,97.3171
2023-04-16T14:25:06.815Z,97.4705
2023-04-16T14:26:07.641Z,97.9306
2023-04-16T14:27:08.507Z,97.5949
2023-04-16T14:28:09.298Z,97.4188
2023-04-16T14:29:10.741Z,97.8033
2023-04-16T14:30:11.638Z,97.8383
2023-04-16T14:31:12.520Z,97.8275
2023-04-16T14:32:13.775Z,97.9959
2023-04-16T14:33:14.540Z,98.0547
2023-04-16T14:34:15.553Z,98.0661
2023-04-16T14:35:16.300Z,98.2883
2023-04-16T14:36:17.233Z,98.0965
2023-04-16T14:37:17.983Z,97.9784
2023-04-16T14:38:18.850Z,98.2710
2023-04-16T14:39:19.647Z,98.0716
2023-04-16T14:40:20.615Z,98.3331
2023-04-16T14:41:21.466Z,98.2291
2023-04-16T14:42:22.257Z,97.8593
2023-04-16T14:43:23.554Z,97.9933
2023-04-16T14:44:25.087Z,97.9744
2023-04-16T14:45:25.886Z,97.6342
2023-04-16T14:46:26.655Z,97.9350
2023-04-16T14:47:27.413Z,98.1501
2023-04-16T14:48:28.235Z,97.8618
2023-04-16T14:49:29.079Z,97.5761
2023-04-16T14:50:30.117Z,96.6178
2023-04-16T14:51:30.919Z,97.2361
2023-04-16T14:52:31.774Z,97.5890
2023-04-16T14:53:32.694Z,97.9358
2023-04-16T14:54:33.544Z,97.7024
2023-04-16T14:55:34.383Z,97.4327
2023-04-16T14:56:35.405Z,97.5866
2023-04-16T14:57:36.239Z,97.4812
2023-04-16T14:58:38.647Z,97.3650
2023-04-16T14:59:40.689Z,97.6353
2023-04-16T15:00:41.561Z,97.9557
2023-04-16T15:01:42.397Z,97.1426
2023-04-16T15:02:43.371Z,96.9126
2023-04-16T15:03:45.732Z,97.7020
2023-04-16T15:04:47.842Z,97.3072
2023-04-16T15:05:49.702Z,97.3244
2023-04-16T15:06:55.515Z,97.0880
